createdAt,value
2023-05-19T00:00:15.376Z,11.23
2023-05-19T00:02:44.117Z,11.11
2023-05-19T00:05:18.450Z,11.39
2023-05-19T00:07:47.895Z,10.92
2023-05-19T00:10:16.840Z,11.44
2023-05-19T00:12:44.792Z,11.03
2023-05-19T00:15:16.372Z,11.07
2023-05-19T00:17:43.571Z,11.21
2023-05-19T00:20:12.120Z,11.26
2023-05-19T00:22:39.332Z,11.11
2023-05-19T00:25:07.414Z,11.56
2023-05-19T00:27:34.571Z,10.74
2023-05-19T00:30:01.805Z,10.62
2023-05-19T00:32:28.960Z,11.30
2023-05-19T00:34:56.132Z,10.44
2023-05-19T00:37:23.385Z,11.17
2023-05-19T00:39:50.676Z,11.22
2023-05-19T00:42:17.945Z,10.57
2023-05-19T00:44:45.046Z,11.35
2023-05-19T00:47:12.183Z,11.32
2023-05-19T00:49:39.329Z,11.32
2023-05-19T00:52:07.545Z,10.87
2023-05-19T00:54:36.018Z,10.56
2023-05-19T00:57:04.277Z,10.91
2023-05-19T00:59:33.591Z,11.09
2023-05-19T01:02:02.807Z,11.02
2023-05-19T01:07:02.084Z,10.65
2023-05-19T01:09:30.637Z,10.47
2023-05-19T01:11:57.851Z,10.44
2023-05-19T01:14:25.151Z,9.96
2023-05-19T01:17:10.007Z,10.21
2023-05-19T01:20:06.653Z,10.05
2023-05-19T01:23:14.975Z,10.16
2023-05-19T01:26:04.619Z,10.21
2023-05-19T01:29:31.612Z,10.14
2023-05-19T01:32:01.540Z,10.36
2023-05-19T01:34:31.441Z,10.13
2023-05-19T01:37:00.681Z,9.90
2023-05-19T01:39:29.427Z,9.88
2023-05-19T01:41:58.019Z,10.10
2023-05-19T01:44:25.346Z,9.70
2023-05-19T01:46:52.953Z,9.58
2023-05-19T01:49:20.389Z,10.17
2023-05-19T01:51:49.324Z,9.25
2023-05-19T01:54:16.522Z,9.92
2023-05-19T01:57:23.415Z,10.22
2023-05-19T02:00:38.795Z,10.10
2023-05-19T02:03:38.552Z,9.74
2023-05-19T02:06:40.148Z,9.87
2023-05-19T02:09:37.136Z,10.10
2023-05-19T02:12:25.924Z,9.99
2023-05-19T02:15:06.893Z,9.77
2023-05-19T02:17:41.581Z,10.19
2023-05-19T02:20:11.711Z,9.77
2023-05-19T02:22:38.944Z,10.08
2023-05-19T02:25:07.091Z,9.83
2023-05-19T02:27:39.229Z,10.16
2023-05-19T02:30:09.329Z,9.86
2023-05-19T02:32:36.631Z,10.20
2023-05-19T02:35:04.875Z,9.86
2023-05-19T02:37:32.494Z,9.81
2023-05-19T02:39:59.845Z,9.82
2023-05-19T02:42:27.002Z,10.24
2023-05-19T02:44:55.441Z,9.92
2023-05-19T02:47:22.770Z,10.09
2023-05-19T02:49:50.143Z,9.98
2023-05-19T02:52:17.355Z,9.62
2023-05-19T02:54:44.706Z,10.05
2023-05-19T02:57:11.863Z,9.85
2023-05-19T02:59:39.039Z,9.74
2023-05-19T03:02:06.286Z,10.15
2023-05-19T03:04:41.406Z,9.84
2023-05-19T03:07:10.397Z,9.99
2023-05-19T03:09:40.644Z,10.23
2023-05-19T03:12:08.106Z,10.27
2023-05-19T03:14:37.702Z,9.82
2023-05-19T03:17:07.803Z,10.02
2023-05-19T03:19:35.140Z,9.99
2023-05-19T03:22:02.356Z,10.38
2023-05-19T03:24:29.487Z,10.16
2023-05-19T03:26:58.966Z,10.11
2023-05-19T03:29:26.175Z,10.15
2023-05-19T03:31:54.315Z,9.86
2023-05-19T03:34:22.402Z,10.01
2023-05-19T03:36:50.380Z,10.15
2023-05-19T03:39:18.030Z,9.85
2023-05-19T03:41:45.393Z,10.09
2023-05-19T03:44:12.489Z,10.30
2023-05-19T03:46:39.677Z,10.05
2023-05-19T03:49:06.799Z,10.35
2023-05-19T03:51:34.997Z,9.91
2023-05-19T03:54:02.519Z,10.26
2023-05-19T03:56:29.950Z,10.03
2023-05-19T03:58:57.086Z,9.74
2023-05-19T04:01:24.264Z,10.17
2023-05-19T04:03:51.375Z,10.04
2023-05-19T04:06:19.972Z,10.43
2023-05-19T04:08:48.339Z,10.80
2023-05-19T04:11:15.710Z,10.54
2023-05-19T04:13:44.042Z,10.16
2023-05-19T04:16:12.357Z,10.50
2023-05-19T04:18:39.559Z,10.29
2023-05-19T04:21:08.610Z,10.57
2023-05-19T04:23:35.965Z,10.46
2023-05-19T04:26:03.720Z,10.69
2023-05-19T04:28:31.258Z,10.55
2023-05-19T04:30:58.534Z,11.06
2023-05-19T04:33:25.801Z,10.53
2023-05-19T04:35:53.038Z,10.51
2023-05-19T04:38:22.211Z,10.93
2023-05-19T04:40:50.560Z,11.33
2023-05-19T04:43:19.217Z,10.99
2023-05-19T04:45:51.376Z,11.26
2023-05-19T04:48:19.037Z,11.13
2023-05-19T04:50:48.734Z,11.38
2023-05-19T04:53:16.401Z,11.48
2023-05-19T04:55:45.297Z,12.19
2023-05-19T04:58:12.486Z,11.46
2023-05-19T05:00:39.611Z,12.29
2023-05-19T05:03:07.590Z,12.52
2023-05-19T05:05:35.389Z,12.45
2023-05-19T05:08:03.166Z,12.43
2023-05-19T05:10:30.476Z,12.63
2023-05-19T05:12:58.702Z,12.83
2023-05-19T05:15:28.819Z,12.71
2023-05-19T05:17:56.808Z,12.98
2023-05-19T05:20:24.624Z,12.24
2023-05-19T05:22:52.463Z,12.63
2023-05-19T05:25:21.100Z,12.55
2023-05-19T05:27:48.243Z,13.33
2023-05-19T05:30:15.428Z,12.96
2023-05-19T05:32:42.671Z,13.68
2023-05-19T05:35:10.619Z,13.47
2023-05-19T05:37:37.817Z,13.43
2023-05-19T05:40:07.050Z,13.66
2023-05-19T05:42:34.198Z,14.03
2023-05-19T05:45:01.805Z,13.70
2023-05-19T05:47:29.405Z,13.14
2023-05-19T05:49:57.057Z,12.78
2023-05-19T05:52:30.885Z,12.88
2023-05-19T05:54:58.747Z,13.45
2023-05-19T05:57:26.986Z,13.73
2023-05-19T05:59:54.118Z,13.97
2023-05-19T06:02:21.933Z,13.88
2023-05-19T06:04:49.203Z,14.32
2023-05-19T06:07:16.349Z,14.13
2023-05-19T06:09:43.619Z,14.50
2023-05-19T06:12:11.274Z,14.83
2023-05-19T06:14:38.374Z,15.00
2023-05-19T06:17:05.521Z,15.32
2023-05-19T06:19:34.981Z,14.38
2023-05-19T06:22:02.082Z,14.58
2023-05-19T06:24:32.721Z,15.44
2023-05-19T06:26:59.843Z,14.62
2023-05-19T06:29:27.112Z,15.09
2023-05-19T06:31:54.279Z,15.35
2023-05-19T06:34:21.657Z,16.78
2023-05-19T06:36:49.056Z,16.26
2023-05-19T06:39:16.234Z,16.24
2023-05-19T06:41:43.442Z,16.90
2023-05-19T06:44:10.921Z,16.15
2023-05-19T06:46:38.262Z,15.76
2023-05-19T06:49:05.440Z,15.88
2023-05-19T06:51:35.878Z,17.29
2023-05-19T06:54:03.374Z,16.67
2023-05-19T06:56:30.756Z,16.73
2023-05-19T06:59:04.454Z,17.19
2023-05-19T07:01:31.859Z,17.10
2023-05-19T07:03:59.362Z,16.32
2023-05-19T07:06:34.957Z,16.70
2023-05-19T07:09:05.472Z,16.60
2023-05-19T07:11:32.991Z,16.60
2023-05-19T07:14:00.145Z,16.16
2023-05-19T07:16:36.419Z,17.01
2023-05-19T07:19:03.918Z,17.17
2023-05-19T07:21:31.674Z,16.70
2023-05-19T07:23:58.865Z,16.80
2023-05-19T07:26:26.737Z,16.76
2023-05-19T07:28:55.001Z,17.12
2023-05-19T07:31:22.501Z,17.30
2023-05-19T07:33:51.083Z,18.08
2023-05-19T07:36:25.283Z,16.99
2023-05-19T07:38:59.269Z,17.41
2023-05-19T07:41:34.275Z,17.95
2023-05-19T07:44:07.512Z,17.61
2023-05-19T07:46:44.996Z,16.99
2023-05-19T07:49:12.874Z,18.06
2023-05-19T07:51:42.883Z,17.76
2023-05-19T07:54:13.886Z,17.82
2023-05-19T07:56:41.379Z,18.24
2023-05-19T07:59:09.135Z,17.94
2023-05-19T08:01:36.449Z,18.77
2023-05-19T08:04:03.823Z,19.37
2023-05-19T08:06:31.787Z,18.32
2023-05-19T08:09:05.798Z,19.97
2023-05-19T08:11:37.142Z,19.12
2023-05-19T08:14:05.056Z,20.23
2023-05-19T08:16:32.779Z,20.81
2023-05-19T08:19:02.518Z,18.85
2023-05-19T08:21:30.278Z,19.66
2023-05-19T08:23:57.665Z,19.27
2023-05-19T08:26:25.172Z,20.61
2023-05-19T08:28:55.998Z,20.00
2023-05-19T08:31:31.470Z,19.36
2023-05-19T08:33:58.643Z,19.80
2023-05-19T08:36:25.832Z,20.23
2023-05-19T08:38:53.285Z,20.30
2023-05-19T08:41:21.679Z,20.07
2023-05-19T08:43:50.131Z,21.24
2023-05-19T08:46:18.543Z,21.67
2023-05-19T08:48:48.889Z,19.06
2023-05-19T08:51:53.830Z,20.24
2023-05-19T08:54:40.337Z,21.00
2023-05-19T08:57:09.988Z,21.76
2023-05-19T08:59:37.569Z,22.30
2023-05-19T09:02:06.852Z,21.68
2023-05-19T09:04:36.752Z,22.70
2023-05-19T09:07:04.726Z,22.08
2023-05-19T09:09:35.234Z,21.09
2023-05-19T09:12:02.601Z,20.22
2023-05-19T09:14:31.079Z,21.89
2023-05-19T09:17:17.484Z,24.02
2023-05-19T09:19:48.089Z,22.49
2023-05-19T09:22:27.038Z,21.38
2023-05-19T09:24:54.267Z,23.39
2023-05-19T09:27:27.993Z,22.77
2023-05-19T09:29:55.212Z,20.34
2023-05-19T09:32:27.133Z,20.57
2023-05-19T09:34:55.152Z,20.79
2023-05-19T09:37:29.019Z,20.58
2023-05-19T09:39:56.551Z,20.60
2023-05-19T09:42:29.860Z,21.07
2023-05-19T09:45:04.858Z,21.90
2023-05-19T09:47:41.403Z,20.78
2023-05-19T09:50:12.590Z,20.95
2023-05-19T09:52:47.519Z,21.18
2023-05-19T09:55:16.512Z,21.48
2023-05-19T09:57:46.167Z,21.69
2023-05-19T10:00:17.276Z,20.34
2023-05-19T10:02:48.141Z,21.35
2023-05-19T10:05:20.482Z,21.64
2023-05-19T10:07:54.428Z,20.99
2023-05-19T10:10:23.043Z,22.86
2023-05-19T10:12:53.630Z,21.62
2023-05-19T10:15:29.894Z,21.06
2023-05-19T10:17:57.866Z,21.09
2023-05-19T10:20:26.498Z,21.00
2023-05-19T10:22:59.566Z,22.57
2023-05-19T10:25:26.812Z,23.00
2023-05-19T10:28:01.819Z,22.21
2023-05-19T10:34:32.634Z,21.91
2023-05-19T10:37:22.074Z,21.69
2023-05-19T10:39:52.963Z,21.21
2023-05-19T10:42:53.851Z,22.98
2023-05-19T10:45:27.113Z,22.39
2023-05-19T10:47:55.246Z,23.46
2023-05-19T10:50:23.658Z,23.04
2023-05-19T10:52:57.836Z,21.68
2023-05-19T10:56:03.415Z,22.22
2023-05-19T10:59:00.487Z,21.54
2023-05-19T11:01:37.235Z,22.59
2023-05-19T11:04:15.946Z,22.52
2023-05-19T11:06:52.106Z,23.68
2023-05-19T11:09:22.464Z,22.08
2023-05-19T11:11:54.660Z,22.52
2023-05-19T11:14:28.035Z,22.72
2023-05-19T11:17:01.850Z,24.43
2023-05-19T11:19:35.490Z,24.22
2023-05-19T11:22:13.932Z,24.88
2023-05-19T11:24:47.869Z,22.82
2023-05-19T11:27:37.476Z,22.71
2023-05-19T11:30:19.954Z,22.59
2023-05-19T11:32:48.827Z,22.24
2023-05-19T11:35:19.041Z,23.92
2023-05-19T11:37:52.342Z,23.27
2023-05-19T11:40:23.161Z,21.16
2023-05-19T11:42:50.433Z,22.50
2023-05-19T11:45:17.788Z,23.23
2023-05-19T11:48:01.267Z,22.81
2023-05-19T11:50:31.167Z,23.32
2023-05-19T11:53:01.413Z,23.15
2023-05-19T11:55:30.491Z,22.86
2023-05-19T11:58:05.635Z,21.68
2023-05-19T12:00:40.735Z,21.65
2023-05-19T12:03:09.833Z,23.52
2023-05-19T12:05:47.148Z,23.20
2023-05-19T12:08:17.423Z,23.64
2023-05-19T12:10:47.712Z,24.10
2023-05-19T12:13:19.258Z,23.95
2023-05-19T12:15:46.436Z,22.59
2023-05-19T12:18:13.598Z,21.84
2023-05-19T12:20:41.037Z,22.40
2023-05-19T12:23:09.006Z,22.68
2023-05-19T12:25:36.395Z,22.11
2023-05-19T12:28:04.503Z,22.89
2023-05-19T12:30:35.668Z,22.19
2023-05-19T12:33:06.560Z,21.45
2023-05-19T12:35:37.399Z,21.38
2023-05-19T12:38:06.531Z,21.44
2023-05-19T12:40:36.140Z,22.14
2023-05-19T12:43:06.893Z,22.17
2023-05-19T12:45:38.732Z,22.96
2023-05-19T12:48:12.206Z,23.47
2023-05-19T12:50:39.747Z,22.22
2023-05-19T12:53:14.777Z,21.52
2023-05-19T12:55:45.630Z,22.22
2023-05-19T12:58:16.549Z,23.79
2023-05-19T13:00:47.601Z,22.48
2023-05-19T13:03:24.251Z,22.30
2023-05-19T13:05:54.089Z,22.99
2023-05-19T13:08:23.984Z,22.49
2023-05-19T13:10:51.963Z,22.79
2023-05-19T13:13:19.539Z,22.26
2023-05-19T13:15:52.282Z,22.20
2023-05-19T13:18:19.678Z,21.88
2023-05-19T13:20:51.432Z,21.74
2023-05-19T13:23:19.250Z,22.81
2023-05-19T13:25:46.997Z,23.79
2023-05-19T13:28:14.217Z,24.23
2023-05-19T13:30:43.844Z,24.38
2023-05-19T13:33:11.902Z,24.56
2023-05-19T13:35:39.767Z,22.72
2023-05-19T13:38:09.824Z,22.55
2023-05-19T13:40:38.528Z,22.28
2023-05-19T13:43:09.059Z,22.06
2023-05-19T13:45:36.618Z,22.26
2023-05-19T13:48:04.243Z,21.52
2023-05-19T13:50:31.412Z,22.02
2023-05-19T13:52:58.588Z,21.51
2023-05-19T13:55:27.336Z,22.06
2023-05-19T13:57:57.546Z,21.99
2023-05-19T14:00:24.842Z,21.84
2023-05-19T14:02:52.740Z,21.31
2023-05-19T14:05:20.147Z,22.18
2023-05-19T14:07:47.274Z,21.99
2023-05-19T14:10:14.438Z,21.28
2023-05-19T14:13:02.431Z,21.50
2023-05-19T14:15:46.350Z,21.43
2023-05-19T14:18:13.668Z,21.34
2023-05-19T14:20:43.854Z,21.98
2023-05-19T14:23:10.995Z,21.95
2023-05-19T14:25:38.164Z,21.65
2023-05-19T14:28:10.969Z,21.65
2023-05-19T14:30:41.567Z,21.17
2023-05-19T14:33:09.299Z,20.41
2023-05-19T14:35:36.625Z,21.38
2023-05-19T14:38:03.825Z,20.65
2023-05-19T14:40:31.200Z,20.93
2023-05-19T14:42:58.762Z,21.60
2023-05-19T14:45:28.824Z,20.91
2023-05-19T14:47:56.061Z,21.48
2023-05-19T14:50:23.237Z,21.14
2023-05-19T14:52:50.493Z,21.17
2023-05-19T14:55:17.681Z,20.97
2023-05-19T14:57:45.048Z,20.99
2023-05-19T15:00:13.162Z,20.99
2023-05-19T15:02:40.413Z,21.11
2023-05-19T15:05:08.272Z,21.05
2023-05-19T15:07:37.896Z,21.06
2023-05-19T15:10:07.841Z,21.66
2023-05-19T15:12:35.471Z,21.54
2023-05-19T15:15:03.089Z,21.22
2023-05-19T15:17:30.906Z,20.42
2023-05-19T15:19:58.084Z,21.17
2023-05-19T15:22:25.189Z,20.60
2023-05-19T15:24:52.250Z,21.35
2023-05-19T15:27:20.759Z,21.83
2023-05-19T15:29:47.931Z,22.75
2023-05-19T15:32:15.043Z,22.89
2023-05-19T15:34:42.167Z,22.27
2023-05-19T15:37:09.291Z,21.77
2023-05-19T15:39:36.360Z,22.28
2023-05-19T15:42:03.493Z,22.05
2023-05-19T15:44:30.716Z,21.80
2023-05-19T15:46:57.833Z,20.86
2023-05-19T15:49:26.368Z,20.86
2023-05-19T15:51:53.470Z,20.87
2023-05-19T15:54:20.709Z,21.54
2023-05-19T15:56:47.847Z,21.19
2023-05-19T15:59:14.954Z,21.32
2023-05-19T16:01:42.274Z,20.51
2023-05-19T16:04:09.596Z,20.92
2023-05-19T16:06:36.741Z,20.91
2023-05-19T16:09:03.981Z,20.43
2023-05-19T16:11:31.080Z,20.17
2023-05-19T16:14:01.091Z,20.91
2023-05-19T16:16:28.448Z,20.66
2023-05-19T16:18:55.609Z,20.83
2023-05-19T16:21:23.520Z,21.21
2023-05-19T16:23:50.721Z,21.31
2023-05-19T16:26:17.833Z,21.22
2023-05-19T16:28:44.942Z,20.75
2023-05-19T16:31:12.235Z,20.09
2023-05-19T16:33:39.975Z,19.99
2023-05-19T16:36:07.201Z,19.70
2023-05-19T16:38:34.378Z,20.06
2023-05-19T16:41:03.612Z,19.73
2023-05-19T16:43:33.372Z,20.59
2023-05-19T16:46:03.259Z,20.26
2023-05-19T16:48:30.644Z,20.18
2023-05-19T16:50:57.827Z,19.64
2023-05-19T16:53:25.049Z,19.95
2023-05-19T16:55:52.244Z,20.42
2023-05-19T16:58:19.314Z,20.27
2023-05-19T17:00:52.590Z,19.71
2023-05-19T17:03:20.206Z,19.58
2023-05-19T17:05:47.469Z,19.72
2023-05-19T17:08:14.652Z,20.51
2023-05-19T17:10:41.767Z,19.56
2023-05-19T17:13:08.912Z,19.38
2023-05-19T17:15:37.443Z,19.49
2023-05-19T17:18:05.614Z,19.59
2023-05-19T17:20:32.970Z,19.54
2023-05-19T17:23:00.484Z,19.44
2023-05-19T17:25:36.680Z,19.04
2023-05-19T17:28:04.024Z,19.70
2023-05-19T17:30:31.712Z,19.12
2023-05-19T17:32:59.412Z,19.11
2023-05-19T17:35:29.191Z,19.60
2023-05-19T17:37:58.017Z,19.85
2023-05-19T17:40:25.502Z,20.03
2023-05-19T17:42:52.748Z,19.93
2023-05-19T17:45:20.073Z,19.60
2023-05-19T17:47:47.334Z,19.56
2023-05-19T17:50:14.514Z,18.66
2023-05-19T17:52:42.041Z,18.55
2023-05-19T17:55:11.350Z,19.77
2023-05-19T17:57:43.403Z,19.55
2023-05-19T18:00:12.000Z,19.49
2023-05-19T18:02:40.346Z,19.32
2023-05-19T18:05:09.009Z,18.81
2023-05-19T18:07:41.757Z,19.11
2023-05-19T18:10:10.610Z,19.23
2023-05-19T18:12:37.880Z,19.46
2023-05-19T18:15:06.210Z,19.19
2023-05-19T18:17:33.586Z,18.38
2023-05-19T18:20:00.948Z,19.44
2023-05-19T18:22:28.077Z,18.59
2023-05-19T18:24:55.342Z,18.50
2023-05-19T18:27:22.450Z,18.68
2023-05-19T18:29:49.526Z,18.46
2023-05-19T18:32:17.704Z,18.37
2023-05-19T18:34:44.881Z,18.69
2023-05-19T18:37:12.036Z,18.28
2023-05-19T18:39:39.191Z,18.58
2023-05-19T18:42:06.552Z,18.84
2023-05-19T18:44:33.877Z,17.69
2023-05-19T18:47:01.258Z,18.32
2023-05-19T18:49:28.352Z,18.17
2023-05-19T18:51:55.463Z,18.49
2023-05-19T18:54:22.687Z,18.47
2023-05-19T18:56:49.788Z,18.13
2023-05-19T18:59:16.957Z,18.12
2023-05-19T19:01:45.168Z,18.27
2023-05-19T19:04:14.599Z,18.07
2023-05-19T19:06:42.065Z,17.58
2023-05-19T19:09:11.054Z,17.54
2023-05-19T19:11:38.521Z,17.58
2023-05-19T19:14:05.651Z,18.10
2023-05-19T19:16:33.177Z,17.77
2023-05-19T19:19:03.532Z,17.37
2023-05-19T19:21:31.506Z,17.28
2023-05-19T19:23:58.778Z,17.15
2023-05-19T19:26:29.473Z,17.02
2023-05-19T19:28:57.330Z,16.89
2023-05-19T19:31:28.776Z,16.94
2023-05-19T19:33:58.906Z,17.40
2023-05-19T19:36:26.714Z,16.77
2023-05-19T19:38:53.867Z,16.99
2023-05-19T19:41:21.201Z,16.70
2023-05-19T19:43:48.320Z,17.01
2023-05-19T19:46:15.488Z,16.55
2023-05-19T19:48:42.718Z,16.72
2023-05-19T19:51:09.836Z,16.53
2023-05-19T19:53:36.987Z,16.59
2023-05-19T19:56:05.138Z,16.38
2023-05-19T19:58:32.330Z,16.41
2023-05-19T20:01:03.839Z,16.26
2023-05-19T20:03:31.692Z,16.21
2023-05-19T20:06:01.325Z,16.05
2023-05-19T20:08:28.427Z,16.45
2023-05-19T20:10:55.738Z,16.16
2023-05-19T20:13:23.227Z,16.24
2023-05-19T20:15:51.329Z,16.05
2023-05-19T20:18:18.799Z,16.12
2023-05-19T20:20:50.850Z,16.23
2023-05-19T20:23:18.025Z,16.10
2023-05-19T20:26:02.327Z,16.11
2023-05-19T20:28:32.780Z,15.89
2023-05-19T20:30:59.905Z,16.13
2023-05-19T20:33:27.018Z,15.80
2023-05-19T20:35:54.166Z,15.91
2023-05-19T20:38:21.505Z,15.88
2023-05-19T20:40:48.793Z,15.78
2023-05-19T20:43:16.358Z,15.97
2023-05-19T20:45:44.512Z,15.70
2023-05-19T20:48:11.926Z,15.61
2023-05-19T20:50:39.900Z,15.84
2023-05-19T20:53:07.458Z,15.92
2023-05-19T20:55:36.166Z,15.74
2023-05-19T20:58:03.527Z,15.41
2023-05-19T21:00:30.928Z,15.24
2023-05-19T21:02:58.273Z,15.36
2023-05-19T21:05:25.638Z,15.77
2023-05-19T21:07:52.840Z,15.55
2023-05-19T21:10:20.039Z,14.91
2023-05-19T21:12:47.426Z,15.35
2023-05-19T21:15:14.879Z,15.22
2023-05-19T21:17:42.232Z,15.20
2023-05-19T21:20:10.480Z,15.19
2023-05-19T21:22:37.660Z,15.34
2023-05-19T21:25:06.042Z,15.47
2023-05-19T21:27:35.665Z,15.14
2023-05-19T21:30:06.452Z,15.15
2023-05-19T21:32:33.744Z,14.91
2023-05-19T21:35:01.379Z,15.12
2023-05-19T21:37:28.452Z,15.05
2023-05-19T21:39:58.422Z,14.67
2023-05-19T21:42:29.238Z,15.01
2023-05-19T21:44:56.625Z,14.77
2023-05-19T21:47:23.737Z,14.69
2023-05-19T21:49:51.058Z,15.13
2023-05-19T21:52:19.141Z,14.74
2023-05-19T21:54:46.422Z,14.49
2023-05-19T21:57:13.637Z,14.56
2023-05-19T21:59:40.824Z,14.29
2023-05-19T22:02:08.160Z,14.15
2023-05-19T22:04:35.941Z,14.08
2023-05-19T22:07:03.911Z,14.20
2023-05-19T22:09:38.986Z,13.86
2023-05-19T22:12:07.858Z,14.02
2023-05-19T22:14:35.964Z,13.72
2023-05-19T22:17:15.044Z,13.84
2023-05-19T22:19:49.809Z,13.68
2023-05-19T22:22:20.450Z,13.87
2023-05-19T22:24:58.958Z,13.80
2023-05-19T22:27:26.364Z,13.91
2023-05-19T22:29:58.040Z,13.62
2023-05-19T22:32:26.470Z,13.55
2023-05-19T22:34:54.127Z,13.62
2023-05-19T22:37:24.170Z,13.67
2023-05-19T22:39:51.671Z,13.92
2023-05-19T22:42:18.963Z,13.98
2023-05-19T22:44:46.312Z,14.01
2023-05-19T22:47:20.066Z,13.91
2023-05-19T22:49:51.153Z,13.90
2023-05-19T22:52:18.656Z,13.93
2023-05-19T22:54:46.421Z,13.67
2023-05-19T22:57:13.630Z,13.98
2023-05-19T22:59:41.363Z,13.78
2023-05-19T23:02:08.798Z,13.70
2023-05-19T23:04:36.787Z,13.69
2023-05-19T23:07:04.380Z,13.54
2023-05-19T23:09:34.965Z,13.75
2023-05-19T23:12:02.193Z,13.60
2023-05-19T23:14:29.481Z,13.48
2023-05-19T23:16:57.074Z,13.03
2023-05-19T23:19:24.494Z,13.04
2023-05-19T23:21:52.122Z,13.15
2023-05-19T23:24:19.833Z,13.25
2023-05-19T23:26:47.093Z,13.15
2023-05-19T23:29:17.732Z,12.96
2023-05-19T23:31:45.465Z,12.71
2023-05-19T23:34:13.200Z,12.84
2023-05-19T23:36:40.910Z,12.79
2023-05-19T23:39:08.292Z,12.53
2023-05-19T23:41:36.805Z,12.63
2023-05-19T23:44:07.000Z,12.66
2023-05-19T23:46:35.399Z,12.69
2023-05-19T23:49:02.773Z,12.51
2023-05-19T23:51:30.012Z,12.93
2023-05-19T23:53:57.518Z,13.12
2023-05-19T23:56:24.869Z,13.32
2023-05-19T23:58:52.149Z,13.22
